createdAt,value
2022-11-27T00:00:51.115Z,35.90
2022-11-27T00:03:19.139Z,32.83
2022-11-27T00:05:53.566Z,32.87
2022-11-27T00:08:23.119Z,26.60
2022-11-27T00:10:51.334Z,26.20
2022-11-27T00:13:19.478Z,38.13
2022-11-27T00:15:47.527Z,36.80
2022-11-27T00:18:15.514Z,39.03
2022-11-27T00:20:43.441Z,30.43
2022-11-27T00:23:11.381Z,37.17
2022-11-27T00:25:40.964Z,30.27
2022-11-27T00:28:08.914Z,39.03
2022-11-27T00:30:36.889Z,43.00
2022-11-27T00:33:05.051Z,30.83
2022-11-27T00:35:32.986Z,37.70
2022-11-27T00:38:00.946Z,29.10
2022-11-27T00:40:28.876Z,35.60
2022-11-27T00:42:58.259Z,30.50
2022-11-27T00:45:26.265Z,29.23
2022-11-27T00:47:54.184Z,28.87
2022-11-27T00:50:22.301Z,31.30
2022-11-27T00:52:50.263Z,34.50
2022-11-27T00:55:18.509Z,42.43
2022-11-27T00:57:46.547Z,30.83
2022-11-27T01:00:17.331Z,29.77
2022-11-27T01:02:45.513Z,29.27
2022-11-27T01:05:13.701Z,30.37
2022-11-27T01:07:41.763Z,38.23
2022-11-27T01:10:10.662Z,32.13
2022-11-27T01:12:38.602Z,32.87
2022-11-27T01:15:07.353Z,28.83
2022-11-27T01:17:36.638Z,30.83
2022-11-27T01:20:05.733Z,36.10
2022-11-27T01:22:34.560Z,28.03
2022-11-27T01:25:02.586Z,30.47
2022-11-27T01:27:30.509Z,31.40
2022-11-27T01:29:58.442Z,29.20
2022-11-27T01:32:27.007Z,29.53
2022-11-27T01:34:56.398Z,35.43
2022-11-27T01:37:24.409Z,35.20
2022-11-27T01:39:52.358Z,28.27
2022-11-27T01:42:20.342Z,29.93
2022-11-27T01:44:55.226Z,28.17
2022-11-27T01:47:46.477Z,31.30
2022-11-27T01:50:19.285Z,30.70
2022-11-27T01:52:51.246Z,28.13
2022-11-27T01:55:25.494Z,25.40
2022-11-27T01:57:56.053Z,24.00
2022-11-27T02:00:25.674Z,35.07
2022-11-27T02:02:54.082Z,26.73
2022-11-27T02:05:25.247Z,26.20
2022-11-27T02:07:54.169Z,29.83
2022-11-27T02:10:27.501Z,29.07
2022-11-27T02:13:00.533Z,34.00
2022-11-27T02:15:36.500Z,36.63
2022-11-27T02:18:13.965Z,29.47
2022-11-27T02:20:52.384Z,29.00
2022-11-27T02:24:11.354Z,29.60
2022-11-27T02:27:13.630Z,27.87
2022-11-27T02:29:45.900Z,25.50
2022-11-27T02:32:21.074Z,29.83
2022-11-27T02:34:53.555Z,26.93
2022-11-27T02:37:28.290Z,33.23
2022-11-27T02:40:01.736Z,36.80
2022-11-27T02:42:33.781Z,39.10
2022-11-27T02:45:05.440Z,38.43
2022-11-27T02:47:34.631Z,31.37
2022-11-27T02:50:04.710Z,34.83
2022-11-27T02:52:33.808Z,27.27
2022-11-27T02:55:06.816Z,29.20
2022-11-27T02:57:36.654Z,25.17
2022-11-27T03:00:07.569Z,27.20
2022-11-27T03:02:41.822Z,35.13
2022-11-27T03:05:14.553Z,30.93
2022-11-27T03:07:46.016Z,32.90
2022-11-27T03:10:19.139Z,44.67
2022-11-27T03:12:47.931Z,35.70
2022-11-27T03:15:17.885Z,34.33
2022-11-27T03:17:54.384Z,36.90
2022-11-27T03:20:26.624Z,89.50
2022-11-27T03:22:55.420Z,54.57
2022-11-27T03:25:24.517Z,34.70
2022-11-27T03:27:58.444Z,44.87
2022-11-27T03:30:27.922Z,50.47
2022-11-27T03:32:56.785Z,41.13
2022-11-27T03:35:27.193Z,47.53
2022-11-27T03:37:55.794Z,29.60
2022-11-27T03:40:31.104Z,43.53
2022-11-27T03:43:04.901Z,37.80
2022-11-27T03:45:42.597Z,42.67
2022-11-27T03:48:24.319Z,37.97
2022-11-27T03:51:04.579Z,32.33
2022-11-27T03:53:44.457Z,37.33
2022-11-27T03:56:23.797Z,37.67
2022-11-27T03:58:56.191Z,35.50
2022-11-27T04:01:28.367Z,33.97
2022-11-27T04:03:56.511Z,30.60
2022-11-27T04:06:24.527Z,30.57
2022-11-27T04:08:52.523Z,28.73
2022-11-27T04:11:20.517Z,33.40
2022-11-27T04:13:48.449Z,28.07
2022-11-27T04:16:16.560Z,25.83
2022-11-27T04:18:46.221Z,29.00
2022-11-27T04:21:14.265Z,31.40
2022-11-27T04:23:42.195Z,36.13
2022-11-27T04:26:10.296Z,33.50
2022-11-27T04:28:38.341Z,32.17
2022-11-27T04:31:06.604Z,28.77
2022-11-27T04:33:34.642Z,28.70
2022-11-27T04:36:04.053Z,30.33
2022-11-27T04:38:32.366Z,32.40
2022-11-27T04:41:00.817Z,31.77
2022-11-27T04:43:29.382Z,27.10
2022-11-27T04:45:57.386Z,34.37
2022-11-27T04:48:25.396Z,32.03
2022-11-27T04:50:55.605Z,34.80
2022-11-27T04:53:24.938Z,32.80
2022-11-27T04:55:53.199Z,35.73
2022-11-27T04:58:21.209Z,39.83
2022-11-27T05:00:49.226Z,43.43
2022-11-27T05:03:17.267Z,35.17
2022-11-27T05:05:45.210Z,30.43
2022-11-27T05:08:13.246Z,41.07
2022-11-27T05:10:42.802Z,38.73
2022-11-27T05:13:10.733Z,34.80
2022-11-27T05:15:38.669Z,33.53
2022-11-27T05:18:07.097Z,27.60
2022-11-27T05:20:35.027Z,32.40
2022-11-27T05:23:02.985Z,30.07
2022-11-27T05:25:31.949Z,26.07
2022-11-27T05:28:01.266Z,35.10
2022-11-27T05:30:29.253Z,26.63
2022-11-27T05:32:57.204Z,38.00
2022-11-27T05:35:25.173Z,25.20
2022-11-27T05:37:53.077Z,28.43
2022-11-27T05:40:21.074Z,26.00
2022-11-27T05:42:48.960Z,31.50
2022-11-27T05:45:18.487Z,32.33
2022-11-27T05:47:46.417Z,31.43
2022-11-27T05:50:14.386Z,33.07
2022-11-27T05:52:42.483Z,31.97
2022-11-27T05:55:10.816Z,26.60
2022-11-27T05:57:38.744Z,30.70
2022-11-27T06:00:09.021Z,29.20
2022-11-27T06:02:38.484Z,25.63
2022-11-27T06:05:07.316Z,28.37
2022-11-27T06:07:35.307Z,23.20
2022-11-27T06:10:03.775Z,27.43
2022-11-27T06:12:33.709Z,30.97
2022-11-27T06:15:01.640Z,30.60
2022-11-27T06:17:29.646Z,188.80
2022-11-27T06:19:58.980Z,246.53
2022-11-27T06:22:26.998Z,314.53
2022-11-27T06:24:54.977Z,29.27
2022-11-27T06:27:22.953Z,150.67
2022-11-27T06:29:50.917Z,166.83
2022-11-27T06:32:18.892Z,98.43
2022-11-27T06:34:46.807Z,71.60
2022-11-27T06:37:16.129Z,110.10
2022-11-27T06:39:44.098Z,76.47
2022-11-27T06:42:12.814Z,210.13
2022-11-27T06:44:41.165Z,373.43
2022-11-27T06:47:09.391Z,419.90
2022-11-27T06:49:37.388Z,325.73
2022-11-27T06:52:05.861Z,312.63
2022-11-27T06:54:35.177Z,278.33
2022-11-27T06:57:03.285Z,211.87
2022-11-27T06:59:32.759Z,333.77
2022-11-27T07:02:00.948Z,232.27
2022-11-27T07:04:28.999Z,298.13
2022-11-27T07:06:56.945Z,147.80
2022-11-27T07:09:24.886Z,266.97
2022-11-27T07:11:54.173Z,79.30
2022-11-27T07:14:22.100Z,353.53
2022-11-27T07:16:50.192Z,374.30
2022-11-27T07:19:18.154Z,267.47
2022-11-27T07:21:46.153Z,37.83
2022-11-27T07:24:14.103Z,354.97
2022-11-27T07:26:42.053Z,293.90
2022-11-27T07:29:11.359Z,458.80
2022-11-27T07:31:39.388Z,288.10
2022-11-27T07:34:14.094Z,405.70
2022-11-27T07:36:44.228Z,138.23
2022-11-27T07:39:12.215Z,273.00
2022-11-27T07:41:40.142Z,184.53
2022-11-27T07:44:08.080Z,151.53
2022-11-27T07:46:37.737Z,141.87
2022-11-27T07:49:05.652Z,167.10
2022-11-27T07:51:33.645Z,195.60
2022-11-27T07:54:01.549Z,174.77
2022-11-27T07:56:30.400Z,189.33
2022-11-27T07:58:58.873Z,298.00
2022-11-27T08:01:26.859Z,130.13
2022-11-27T08:03:56.778Z,207.67
2022-11-27T08:06:27.001Z,279.10
2022-11-27T08:08:56.559Z,101.83
2022-11-27T08:11:26.817Z,241.30
2022-11-27T08:13:57.826Z,301.03
2022-11-27T08:16:25.975Z,196.47
2022-11-27T08:18:54.097Z,122.40
2022-11-27T08:21:24.021Z,187.37
2022-11-27T08:23:52.225Z,224.97
2022-11-27T08:26:20.854Z,309.37
2022-11-27T08:28:48.784Z,97.03
2022-11-27T08:31:17.105Z,148.27
2022-11-27T08:33:45.053Z,136.77
2022-11-27T08:36:17.901Z,75.13
2022-11-27T08:38:48.040Z,215.27
2022-11-27T08:41:16.040Z,188.87
2022-11-27T08:43:44.245Z,165.40
2022-11-27T08:46:12.794Z,145.90
2022-11-27T08:48:41.789Z,118.97
2022-11-27T08:51:12.079Z,182.47
2022-11-27T08:53:40.837Z,240.27
2022-11-27T08:56:15.521Z,63.20
2022-11-27T08:58:43.741Z,148.27
2022-11-27T09:01:14.728Z,84.23
2022-11-27T09:03:42.880Z,315.13
2022-11-27T09:06:12.355Z,414.30
2022-11-27T09:08:40.447Z,229.00
2022-11-27T09:11:10.729Z,197.93
2022-11-27T09:13:40.313Z,174.90
2022-11-27T09:16:10.741Z,104.23
2022-11-27T09:18:38.839Z,130.87
2022-11-27T09:21:08.847Z,120.00
2022-11-27T09:23:37.369Z,101.37
2022-11-27T09:26:09.278Z,221.30
2022-11-27T09:28:39.801Z,131.47
2022-11-27T09:31:09.700Z,49.83
2022-11-27T09:33:39.457Z,48.10
2022-11-27T09:36:09.222Z,187.93
2022-11-27T09:38:37.584Z,77.47
2022-11-27T09:41:18.810Z,172.60
2022-11-27T09:43:53.381Z,64.53
2022-11-27T09:46:27.962Z,94.17
2022-11-27T09:48:58.265Z,78.73
2022-11-27T09:51:36.481Z,73.77
2022-11-27T09:54:11.628Z,119.37
2022-11-27T09:56:40.577Z,123.40
2022-11-27T09:59:18.086Z,62.13
2022-11-27T10:01:50.891Z,168.57
2022-11-27T10:04:21.105Z,137.37
2022-11-27T10:07:04.196Z,29.57
2022-11-27T10:09:44.833Z,123.57
2022-11-27T10:12:18.972Z,65.77
2022-11-27T10:15:00.023Z,118.33
2022-11-27T10:17:34.769Z,50.90
2022-11-27T10:20:13.541Z,48.93
2022-11-27T10:22:50.871Z,29.83
2022-11-27T10:25:21.697Z,52.13
2022-11-27T10:28:02.654Z,75.73
2022-11-27T10:30:38.113Z,85.80
2022-11-27T10:33:17.132Z,76.83
2022-11-27T10:35:47.698Z,36.43
2022-11-27T10:38:20.686Z,88.03
2022-11-27T10:40:55.315Z,91.97
2022-11-27T10:43:24.726Z,68.30
2022-11-27T10:45:58.190Z,122.93
2022-11-27T10:48:27.754Z,119.63
2022-11-27T10:50:55.693Z,77.50
2022-11-27T10:53:28.832Z,52.50
2022-11-27T10:56:16.251Z,71.67
2022-11-27T10:58:48.207Z,25.27
2022-11-27T11:01:20.199Z,53.33
2022-11-27T11:03:48.803Z,60.37
2022-11-27T11:06:22.303Z,65.20
2022-11-27T11:09:01.637Z,31.63
2022-11-27T11:11:29.670Z,32.67
2022-11-27T11:13:57.627Z,34.40
2022-11-27T11:16:34.899Z,56.17
2022-11-27T11:19:06.064Z,40.13
2022-11-27T11:21:36.359Z,56.00
2022-11-27T11:24:06.585Z,30.27
2022-11-27T11:26:38.553Z,39.17
2022-11-27T11:29:26.631Z,35.83
2022-11-27T11:31:57.589Z,44.20
2022-11-27T11:34:28.341Z,42.17
2022-11-27T11:36:58.378Z,32.33
2022-11-27T11:39:27.950Z,28.53
2022-11-27T11:41:55.928Z,24.77
2022-11-27T11:44:27.094Z,28.03
2022-11-27T11:46:56.813Z,24.20
2022-11-27T11:49:27.376Z,21.53
2022-11-27T11:52:11.199Z,23.50
2022-11-27T11:54:52.404Z,24.57
2022-11-27T11:57:43.584Z,26.47
2022-11-27T12:00:15.334Z,32.17
2022-11-27T12:03:00.241Z,35.77
2022-11-27T12:05:37.375Z,33.30
2022-11-27T12:08:29.053Z,30.20
2022-11-27T12:11:09.541Z,31.63
2022-11-27T12:13:50.431Z,30.43
2022-11-27T12:16:28.630Z,26.97
2022-11-27T12:19:18.029Z,30.67
2022-11-27T12:21:52.878Z,26.73
2022-11-27T12:24:30.838Z,28.83
2022-11-27T12:27:11.909Z,27.10
2022-11-27T12:30:03.745Z,29.93
2022-11-27T12:33:30.878Z,29.00
2022-11-27T12:36:07.274Z,22.77
2022-11-27T12:38:51.104Z,21.70
2022-11-27T12:41:37.445Z,22.10
2022-11-27T12:44:16.006Z,22.30
2022-11-27T12:46:52.921Z,22.27
2022-11-27T12:49:25.730Z,26.90
2022-11-27T12:51:58.770Z,27.87
2022-11-27T12:54:32.093Z,29.40
2022-11-27T12:57:04.838Z,20.23
2022-11-27T12:59:38.849Z,28.37
2022-11-27T13:02:24.462Z,25.03
2022-11-27T13:04:55.575Z,19.63
2022-11-27T13:07:29.976Z,22.83
2022-11-27T13:10:04.029Z,23.47
2022-11-27T13:12:36.505Z,22.00
2022-11-27T13:15:09.414Z,21.40
2022-11-27T13:17:42.317Z,28.30
2022-11-27T13:20:17.723Z,25.93
2022-11-27T13:22:48.501Z,23.20
2022-11-27T13:25:16.829Z,22.33
2022-11-27T13:27:47.403Z,17.97
2022-11-27T13:30:22.397Z,22.03
2022-11-27T13:32:52.638Z,25.60
2022-11-27T13:35:24.180Z,46.40
2022-11-27T13:38:02.787Z,36.73
2022-11-27T13:40:33.753Z,28.57
2022-11-27T13:43:06.925Z,63.17
2022-11-27T13:45:37.693Z,35.63
2022-11-27T13:48:27.911Z,18.10
2022-11-27T13:50:56.061Z,20.20
2022-11-27T13:53:37.315Z,34.20
2022-11-27T13:56:06.610Z,36.93
2022-11-27T13:58:36.626Z,42.43
2022-11-27T14:01:19.369Z,30.00
2022-11-27T14:03:47.457Z,22.73
2022-11-27T14:06:22.121Z,22.53
2022-11-27T14:08:58.476Z,34.17
2022-11-27T14:11:33.606Z,35.77
2022-11-27T14:14:03.099Z,20.03
2022-11-27T14:16:33.278Z,22.57
2022-11-27T14:19:04.067Z,18.33
2022-11-27T14:21:40.891Z,26.83
2022-11-27T14:24:47.027Z,33.33
2022-11-27T14:27:20.267Z,23.63
2022-11-27T14:29:48.718Z,22.33
2022-11-27T14:32:19.052Z,24.17
2022-11-27T14:34:48.041Z,22.33
2022-11-27T14:37:28.945Z,26.93
2022-11-27T14:39:58.257Z,36.87
2022-11-27T14:42:29.503Z,32.77
2022-11-27T14:45:02.969Z,29.67
2022-11-27T14:47:31.274Z,23.77
2022-11-27T14:49:59.484Z,24.63
2022-11-27T14:52:27.886Z,31.03
2022-11-27T14:54:58.268Z,21.70
2022-11-27T14:57:28.558Z,22.33
2022-11-27T15:00:06.362Z,30.23
2022-11-27T15:02:34.705Z,29.20
2022-11-27T15:05:05.621Z,39.93
2022-11-27T15:07:44.144Z,45.53
2022-11-27T15:10:36.434Z,33.47
2022-11-27T15:13:06.990Z,49.37
2022-11-27T15:15:39.030Z,37.83
2022-11-27T15:18:09.089Z,38.70
2022-11-27T15:20:40.531Z,45.23
2022-11-27T15:23:17.441Z,59.60
2022-11-27T15:26:07.236Z,66.80
2022-11-27T15:28:39.257Z,42.97
2022-11-27T15:31:32.643Z,69.43
2022-11-27T15:34:03.386Z,49.53
2022-11-27T15:36:40.407Z,39.40
2022-11-27T15:39:22.322Z,62.73
2022-11-27T15:42:11.278Z,57.80
2022-11-27T15:44:39.377Z,58.47
2022-11-27T15:47:08.361Z,49.23
2022-11-27T15:49:36.295Z,49.90
2022-11-27T15:52:04.337Z,64.10
2022-11-27T15:54:32.319Z,55.73
2022-11-27T15:57:00.259Z,45.93
2022-11-27T15:59:29.569Z,34.10
2022-11-27T16:01:57.964Z,43.90
2022-11-27T16:04:26.061Z,45.87
2022-11-27T16:06:54.079Z,67.53
2022-11-27T16:09:22.036Z,102.97
2022-11-27T16:11:50.190Z,101.30
2022-11-27T16:14:18.302Z,54.43
2022-11-27T16:16:47.664Z,54.17
2022-11-27T16:19:16.988Z,42.30
2022-11-27T16:21:45.070Z,32.57
2022-11-27T16:24:14.314Z,44.60
2022-11-27T16:26:42.763Z,32.47
2022-11-27T16:29:11.483Z,30.67
2022-11-27T16:31:39.515Z,28.40
2022-11-27T16:34:08.902Z,23.50
2022-11-27T16:36:37.380Z,26.13
2022-11-27T16:39:05.770Z,17.27
2022-11-27T16:41:33.765Z,23.23
2022-11-27T16:44:01.705Z,24.30
2022-11-27T16:46:30.999Z,26.80
2022-11-27T16:49:01.381Z,28.90
2022-11-27T16:51:33.322Z,27.93
2022-11-27T16:54:04.605Z,24.10
2022-11-27T16:56:33.936Z,25.23
2022-11-27T16:59:03.343Z,27.00
2022-11-27T17:01:34.259Z,32.80
2022-11-27T17:04:03.572Z,31.40
2022-11-27T17:06:34.629Z,29.80
2022-11-27T17:09:04.337Z,29.60
2022-11-27T17:11:33.817Z,29.27
2022-11-27T17:14:04.982Z,24.43
2022-11-27T17:16:33.022Z,31.20
2022-11-27T17:19:01.042Z,35.27
2022-11-27T17:21:30.922Z,31.53
2022-11-27T17:24:01.627Z,29.30
2022-11-27T17:26:31.366Z,29.10
2022-11-27T17:28:59.927Z,25.93
2022-11-27T17:31:32.479Z,25.23
2022-11-27T17:34:01.206Z,26.23
2022-11-27T17:36:36.484Z,28.00
2022-11-27T17:39:07.172Z,28.47
2022-11-27T17:41:36.357Z,30.23
2022-11-27T17:44:05.633Z,26.20
2022-11-27T17:46:34.348Z,31.10
2022-11-27T17:49:04.223Z,42.53
2022-11-27T17:51:33.777Z,36.90
2022-11-27T17:54:02.933Z,41.63
2022-11-27T17:56:33.108Z,44.80
2022-11-27T17:59:01.193Z,73.03
2022-11-27T18:01:30.673Z,75.17
2022-11-27T18:04:01.184Z,54.10
2022-11-27T18:06:29.809Z,71.63
2022-11-27T18:08:58.133Z,161.60
2022-11-27T18:11:27.788Z,64.43
2022-11-27T18:13:57.411Z,76.77
2022-11-27T18:16:28.895Z,78.87
2022-11-27T18:18:57.519Z,24.90
2022-11-27T18:21:27.046Z,24.63
2022-11-27T18:29:36.149Z,23.43
2022-11-27T18:32:04.470Z,33.20
2022-11-27T18:34:32.712Z,26.03
2022-11-27T18:37:00.941Z,50.93
2022-11-27T18:39:29.668Z,27.00
2022-11-27T18:41:57.611Z,33.90
2022-11-27T18:44:28.562Z,41.27
2022-11-27T18:46:58.401Z,32.27
2022-11-27T18:49:26.699Z,33.27
2022-11-27T18:51:56.426Z,28.27
2022-11-27T18:54:24.626Z,31.93
2022-11-27T18:56:52.661Z,45.70
2022-11-27T18:59:20.725Z,35.03
2022-11-27T19:01:49.513Z,31.40
2022-11-27T19:04:18.930Z,33.00
2022-11-27T19:06:47.083Z,45.33
2022-11-27T19:09:15.659Z,34.80
2022-11-27T19:11:44.227Z,32.37
2022-11-27T19:14:12.692Z,38.37
2022-11-27T19:16:46.327Z,34.93
2022-11-27T19:22:09.738Z,28.80
2022-11-27T19:24:38.584Z,24.70
2022-11-27T19:27:06.553Z,36.40
2022-11-27T19:29:34.523Z,35.77
2022-11-27T19:32:02.886Z,32.50
2022-11-27T19:34:30.915Z,32.50
2022-11-27T19:36:59.085Z,43.37
2022-11-27T19:39:28.897Z,33.70
2022-11-27T19:41:58.202Z,38.07
2022-11-27T19:44:26.621Z,47.27
2022-11-27T19:46:54.658Z,44.80
2022-11-27T19:49:22.641Z,39.90
2022-11-27T19:51:51.227Z,34.33
2022-11-27T19:54:20.499Z,28.67
2022-11-27T19:56:50.152Z,33.67
2022-11-27T19:59:22.760Z,28.00
2022-11-27T20:01:53.497Z,26.30
2022-11-27T20:04:21.504Z,34.93
2022-11-27T20:06:52.500Z,25.20
2022-11-27T20:09:20.630Z,33.07
2022-11-27T20:11:49.949Z,25.30
2022-11-27T20:14:19.371Z,29.77
2022-11-27T20:16:47.537Z,29.43
2022-11-27T20:19:15.881Z,31.80
2022-11-27T20:21:44.138Z,28.40
2022-11-27T20:24:12.525Z,31.17
2022-11-27T20:26:42.825Z,34.63
2022-11-27T20:29:12.745Z,37.80
2022-11-27T20:31:43.734Z,40.43
2022-11-27T20:34:17.349Z,31.80
2022-11-27T20:36:45.351Z,34.73
2022-11-27T20:39:19.223Z,27.10
2022-11-27T20:41:49.454Z,28.70
2022-11-27T20:44:18.995Z,30.67
2022-11-27T20:46:46.967Z,39.87
2022-11-27T20:49:14.950Z,39.80
2022-11-27T20:51:43.088Z,35.07
2022-11-27T20:54:12.793Z,33.57
2022-11-27T20:56:43.102Z,42.17
2022-11-27T20:59:12.374Z,38.43
2022-11-27T21:01:42.437Z,35.10
2022-11-27T21:04:19.437Z,37.87
2022-11-27T21:06:47.457Z,30.17
2022-11-27T21:09:15.388Z,42.83
2022-11-27T21:11:44.074Z,34.20
2022-11-27T21:14:13.954Z,34.20
2022-11-27T21:16:46.857Z,35.40
2022-11-27T21:19:18.575Z,35.83
2022-11-27T21:21:46.781Z,38.83
2022-11-27T21:24:14.857Z,38.03
2022-11-27T21:26:43.235Z,38.00
2022-11-27T21:29:12.228Z,37.67
2022-11-27T21:31:46.096Z,35.80
2022-11-27T21:34:16.836Z,30.87
2022-11-27T21:36:44.839Z,35.83
2022-11-27T21:39:19.937Z,35.83
2022-11-27T21:41:48.508Z,38.80
2022-11-27T21:44:17.666Z,39.97
2022-11-27T21:46:46.053Z,34.70
2022-11-27T21:49:16.723Z,33.30
2022-11-27T21:51:44.715Z,34.00
2022-11-27T21:54:15.302Z,36.00
2022-11-27T21:56:43.387Z,34.90
2022-11-27T21:59:13.456Z,36.00
2022-11-27T22:01:41.873Z,31.43
2022-11-27T22:04:09.889Z,46.70
2022-11-27T22:06:41.625Z,31.50
2022-11-27T22:09:15.022Z,34.13
2022-11-27T22:11:44.773Z,45.77
2022-11-27T22:14:13.441Z,31.60
2022-11-27T22:16:45.168Z,43.53
2022-11-27T22:19:15.143Z,49.17
2022-11-27T22:21:45.434Z,43.27
2022-11-27T22:24:18.335Z,43.67
2022-11-27T22:26:47.395Z,36.20
2022-11-27T22:29:15.377Z,38.73
2022-11-27T22:31:43.328Z,38.13
2022-11-27T22:34:11.283Z,42.87
2022-11-27T22:36:39.605Z,42.23
2022-11-27T22:39:09.661Z,40.90
2022-11-27T22:41:39.602Z,45.30
2022-11-27T22:44:08.027Z,42.23
2022-11-27T22:46:37.195Z,36.80
2022-11-27T22:49:07.513Z,38.70
2022-11-27T22:51:37.218Z,47.37
2022-11-27T22:54:06.700Z,42.37
2022-11-27T22:56:36.387Z,37.27
2022-11-27T23:01:54.505Z,47.47
2022-11-27T23:04:22.470Z,50.63
2022-11-27T23:06:50.474Z,52.20
2022-11-27T23:09:19.218Z,48.07
2022-11-27T23:11:49.052Z,56.17
2022-11-27T23:14:16.999Z,47.60
2022-11-27T23:16:45.266Z,40.70
2022-11-27T23:19:13.337Z,51.57
2022-11-27T23:21:41.327Z,48.67
2022-11-27T23:24:13.202Z,42.37
2022-11-27T23:26:41.186Z,48.20
2022-11-27T23:29:10.651Z,48.10
2022-11-27T23:31:39.610Z,43.47
2022-11-27T23:34:13.114Z,48.67
2022-11-27T23:36:41.449Z,46.33
2022-11-27T23:39:11.510Z,58.97
2022-11-27T23:41:39.790Z,51.03
2022-11-27T23:44:07.918Z,53.10
2022-11-27T23:46:37.233Z,45.00
2022-11-27T23:49:05.257Z,43.87
2022-11-27T23:51:34.198Z,48.50
2022-11-27T23:54:02.742Z,49.90
2022-11-27T23:56:32.820Z,50.10
2022-11-27T23:59:01.569Z,51.43
